Moerbeke, Belgium
Current Conditions -  °F | °C
As of 3:20 PM on Friday 31 Oct 2014 (Local Time) from EBAW Reporting Station
Clear Clear  
Wind Chill: 66°   Ceiling: Unl
Heat Index: 66°   Visibility: 6mi
Dew Point: 52°   Wind: 7mph
Humidity: 60%   Direction: 170°S
Pressure: 30.15"   Gusts: NA
Location:  51.17°N, 3.93°E
Report Text: EBAW 311420Z 17006KT CAVOK 19/11 Q1021 NOSIG
Loading
Personal Weather Stations






























Interactive Weather Map
Tropical Storm Tracking
New forecast layout! Learn more

10-Day Weather Forecast

Advertisements
Track Severe Weather on mobile